Time;durP1;ratioP1;P1;durP2;ratioP2;P2;SDS_P1;SDS_P2;PMS_P1;PMS_P2;Temp;Humidity;BMP_temperature;BMP_pressure;BME280_temperature;BME280_humidity;BME280_pressure;Samples;Min_cycle;Max_cycle;Signal;HPM_P1;HPM_P2
2021/03/25 00:02:02;;;;;;;91.15;35.08;;;;;;;4.67;100.00;102068.84;5150856;28;20022;-69
2021/03/25 00:04:32;;;;;;;91.10;34.03;;;;;;;4.68;100.00;102069.69;5157459;28;20109;-71
2021/03/25 00:07:04;;;;;;;82.82;31.50;;;;;;;4.66;100.00;102066.28;5145335;28;20027;-71
2021/03/25 00:09:39;;;;;;;77.95;31.60;;;;;;;4.63;100.00;102069.16;5155200;28;20034;-69
2021/03/25 00:12:09;;;;;;;86.38;32.20;;;;;;;4.57;100.00;102067.72;5147238;28;20034;-69
2021/03/25 00:14:40;;;;;;;79.57;30.88;;;;;;;4.55;100.00;102071.41;5152059;28;20027;-68
2021/03/25 00:17:11;;;;;;;94.60;36.63;;;;;;;4.51;100.00;102064.59;5145089;28;20018;-71
2021/03/25 00:19:41;;;;;;;107.05;40.22;;;;;;;4.52;100.00;102063.63;5146801;28;20114;-69
2021/03/25 00:22:11;;;;;;;110.85;39.90;;;;;;;4.51;100.00;102067.25;5138053;28;20023;-68
2021/03/25 00:24:42;;;;;;;94.85;37.17;;;;;;;4.51;100.00;102065.44;5138438;28;20054;-69
2021/03/25 00:27:13;;;;;;;99.50;37.78;;;;;;;4.51;100.00;102062.78;5138528;28;20027;-69
2021/03/25 00:29:43;;;;;;;104.00;37.60;;;;;;;4.51;100.00;102068.09;5138036;28;20030;-68
2021/03/25 00:32:14;;;;;;;86.07;33.67;;;;;;;4.49;100.00;102056.72;5137140;28;20034;-69
2021/03/25 00:34:44;;;;;;;91.93;33.70;;;;;;;4.45;100.00;102057.00;5153531;28;20028;-69
2021/03/25 00:37:15;;;;;;;92.28;34.80;;;;;;;4.38;100.00;102060.06;5138381;28;20023;-69
2021/03/25 00:39:45;;;;;;;89.80;34.65;;;;;;;4.34;100.00;102050.56;5137830;28;20034;-70
2021/03/25 00:42:16;;;;;;;95.75;36.67;;;;;;;4.34;100.00;102052.38;5170671;28;20077;-69
2021/03/25 00:44:46;;;;;;;91.90;36.97;;;;;;;4.34;100.00;102057.69;5163701;28;20376;-69
2021/03/25 00:47:17;;;;;;;98.47;36.85;;;;;;;4.33;100.00;102050.69;5152006;28;20382;-68
2021/03/25 00:49:47;;;;;;;107.28;38.63;;;;;;;4.33;100.00;102048.88;5147760;28;20073;-69
2021/03/25 00:52:18;;;;;;;110.32;38.47;;;;;;;4.34;100.00;102049.72;5152884;28;20026;-69
2021/03/25 00:54:48;;;;;;;101.72;37.08;;;;;;;4.38;100.00;102051.25;5147530;28;20058;-69
2021/03/25 00:57:19;;;;;;;95.57;35.53;;;;;;;4.44;100.00;102042.88;5156059;28;20057;-69
2021/03/25 00:59:49;;;;;;;104.22;38.47;;;;;;;4.51;100.00;102043.34;5147713;28;20026;-71
2021/03/25 01:02:20;;;;;;;107.68;39.20;;;;;;;4.55;100.00;102037.72;5149641;28;20054;-70
2021/03/25 01:04:50;;;;;;;109.75;39.42;;;;;;;4.59;100.00;102033.91;5148516;28;20038;-68
2021/03/25 01:07:24;;;;;;;93.75;35.65;;;;;;;4.63;100.00;102031.94;5149849;28;20211;-69
2021/03/25 01:09:55;;;;;;;103.32;37.65;;;;;;;4.67;100.00;102033.44;5151441;28;20056;-68
2021/03/25 01:12:25;;;;;;;104.43;38.60;;;;;;;4.72;100.00;102036.66;5146561;28;20023;-72
2021/03/25 01:14:56;;;;;;;95.03;35.90;;;;;;;4.76;100.00;102030.16;5155317;28;20040;-70
2021/03/25 01:17:26;;;;;;;91.07;34.58;;;;;;;4.81;100.00;102032.53;5154243;28;20023;-69
2021/03/25 01:19:57;;;;;;;100.60;38.20;;;;;;;4.82;100.00;102024.47;5142664;28;20023;-69
2021/03/25 01:22:27;;;;;;;99.40;34.85;;;;;;;4.86;100.00;102025.94;5142817;28;20022;-68
2021/03/25 01:24:57;;;;;;;108.20;39.60;;;;;;;4.90;100.00;102027.47;5141924;28;20054;-68
2021/03/25 01:27:28;;;;;;;104.13;38.65;;;;;;;4.94;100.00;102015.69;5143909;28;20075;-70
2021/03/25 01:29:59;;;;;;;95.72;39.17;;;;;;;4.97;100.00;102014.63;5150932;28;20023;-69
2021/03/25 01:32:29;;;;;;;100.15;37.22;;;;;;;5.01;100.00;102010.78;5156532;28;20057;-70
2021/03/25 01:34:59;;;;;;;95.10;40.33;;;;;;;5.03;100.00;102011.56;5150890;28;20030;-69
2021/03/25 01:37:30;;;;;;;89.10;34.20;;;;;;;5.05;100.00;102003.47;5143461;28;20088;-71
2021/03/25 01:40:01;;;;;;;96.78;35.53;;;;;;;5.06;100.00;102008.69;5142067;28;20019;-71
2021/03/25 01:42:34;;;;;;;98.50;38.13;;;;;;;5.08;100.00;102005.94;5158076;28;20038;-69
2021/03/25 01:45:29;;;;;;;97.10;34.95;;;;;;;5.09;100.00;102007.63;5199419;28;20035;-69
2021/03/25 01:48:00;;;;;;;82.30;33.33;;;;;;;5.08;100.00;102001.47;5147827;28;20510;-69
2021/03/25 01:50:31;;;;;;;91.43;33.08;;;;;;;5.12;100.00;102004.75;5157625;28;20019;-69
2021/03/25 01:53:08;;;;;;;81.35;33.45;;;;;;;5.14;100.00;102009.03;5158049;28;20402;-69
2021/03/25 01:55:45;;;;;;;90.15;35.67;;;;;;;5.14;100.00;102010.84;5156153;28;20807;-71
2021/03/25 01:58:44;;;;;;;87.80;33.53;;;;;;;5.12;100.00;102002.09;5158635;28;20111;-68
2021/03/25 02:01:38;;;;;;;102.50;36.25;;;;;;;5.14;100.00;102000.19;5148919;28;20022;-71
2021/03/25 02:04:36;;;;;;;88.82;36.25;;;;;;;5.14;100.00;102006.38;5158259;28;20482;-69
2021/03/25 02:07:22;;;;;;;102.22;37.35;;;;;;;5.17;100.00;102014.16;5156984;28;20101;-69
2021/03/25 02:10:10;;;;;;;103.40;38.42;;;;;;;5.27;100.00;102014.41;5153841;28;20035;-71
2021/03/25 02:13:06;;;;;;;94.50;35.65;;;;;;;5.35;100.00;102014.72;5159110;28;20019;-69
2021/03/25 02:15:53;;;;;;;104.55;37.65;;;;;;;5.43;100.00;102008.88;5147073;28;20114;-68
2021/03/25 02:18:31;;;;;;;107.30;40.58;;;;;;;5.52;100.00;102020.69;5159377;28;20028;-69
2021/03/25 02:21:18;;;;;;;104.25;39.33;;;;;;;5.57;100.00;102023.88;5146138;28;20023;-69
2021/03/25 02:24:13;;;;;;;105.50;38.70;;;;;;;5.60;100.00;102021.88;5148769;28;20490;-68
2021/03/25 02:26:57;;;;;;;114.10;41.63;;;;;;;5.65;100.00;102024.22;5151740;28;20026;-69
2021/03/25 02:29:58;;;;;;;100.15;38.88;;;;;;;5.70;100.00;102017.63;5148220;28;20071;-69
2021/03/25 02:32:35;;;;;;;111.32;40.90;;;;;;;5.73;100.00;102016.56;5152007;28;20049;-69
2021/03/25 02:35:15;;;;;;;101.70;38.20;;;;;;;5.77;100.00;102018.03;5153868;28;20398;-69
2021/03/25 02:37:49;;;;;;;106.30;39.67;;;;;;;5.80;100.00;102028.47;5152426;28;20034;-70
2021/03/25 02:40:27;;;;;;;110.78;41.30;;;;;;;5.84;100.00;102029.13;5147764;28;20019;-69
2021/03/25 02:43:05;;;;;;;100.60;39.65;;;;;;;5.87;100.00;102031.56;5155679;28;20030;-69
2021/03/25 02:45:52;;;;;;;100.10;39.55;;;;;;;5.87;100.00;102032.44;5140054;28;20059;-69
2021/03/25 02:48:27;;;;;;;109.22;42.22;;;;;;;5.87;100.00;102024.44;5142806;28;20035;-69
2021/03/25 02:51:04;;;;;;;108.00;39.72;;;;;;;5.87;100.00;102026.25;5140384;28;20034;-69
2021/03/25 02:53:48;;;;;;;92.40;36.67;;;;;;;5.86;100.00;102022.72;5195168;28;20026;-70
2021/03/25 02:56:29;;;;;;;103.55;39.28;;;;;;;5.87;100.00;102024.44;5153329;28;20087;-69
2021/03/25 02:59:13;;;;;;;111.15;40.42;;;;;;;5.87;100.00;102021.78;5139547;28;20088;-69
2021/03/25 03:01:50;;;;;;;102.00;39.75;;;;;;;5.87;100.00;102026.25;5158982;28;20019;-70
2021/03/25 03:04:26;;;;;;;111.10;40.33;;;;;;;5.87;100.00;102036.88;5146884;28;20030;-69
2021/03/25 03:07:06;;;;;;;108.25;38.45;;;;;;;5.84;100.00;102026.47;5149945;28;20023;-70
2021/03/25 03:09:42;;;;;;;116.72;42.15;;;;;;;5.82;100.00;102029.22;5149167;28;20027;-69
2021/03/25 03:12:18;;;;;;;103.70;40.45;;;;;;;5.79;100.00;102025.94;5140123;28;20525;-69
2021/03/25 03:14:51;;;;;;;;;;;;;;;5.77;100.00;102023.34;5140684;28;20037;-70
2021/03/25 03:17:29;;;;;;;108.82;40.80;;;;;;;5.75;100.00;102022.63;5155174;28;19909;-69
2021/03/25 03:20:09;;;;;;;107.15;40.63;;;;;;;5.76;100.00;102021.66;5141054;28;20022;-69
2021/03/25 03:22:39;;;;;;;115.43;41.80;;;;;;;5.72;100.00;102025.50;5141054;28;20031;-69
2021/03/25 03:25:15;;;;;;;103.00;40.55;;;;;;;5.71;100.00;102021.13;5151990;28;20087;-70
2021/03/25 03:27:48;;;;;;;107.30;40.80;;;;;;;5.70;100.00;102025.59;5136701;28;20053;-70
2021/03/25 03:30:25;;;;;;;107.25;41.45;;;;;;;5.70;100.00;102025.59;5139110;28;20038;-71
2021/03/25 03:33:02;;;;;;;103.80;40.55;;;;;;;5.71;100.00;102014.00;5143063;28;20394;-69
2021/03/25 03:35:40;;;;;;;106.13;40.92;;;;;;;5.72;100.00;102018.38;5141822;28;20080;-70
2021/03/25 03:38:15;;;;;;;114.45;41.85;;;;;;;5.73;100.00;102016.56;5139181;28;20031;-70
2021/03/25 03:40:51;;;;;;;120.18;43.30;;;;;;;5.74;100.00;102018.25;5146831;28;20017;-69
2021/03/25 03:43:22;;;;;;;99.82;38.22;;;;;;;5.76;100.00;102016.34;5151943;28;20507;-70
2021/03/25 03:46:00;;;;;;;115.85;42.13;;;;;;;5.77;100.00;102010.03;5213973;28;20061;-69
2021/03/25 03:48:47;;;;;;;109.20;40.95;;;;;;;5.82;100.00;102007.06;5157086;28;20091;-69
2021/03/25 03:51:42;;;;;;;109.53;39.95;;;;;;;5.87;100.00;102011.13;5157451;28;20031;-69
2021/03/25 03:54:14;;;;;;;102.95;40.03;;;;;;;5.92;100.00;102011.69;5148087;28;20035;-70
2021/03/25 03:57:03;;;;;;;107.70;37.67;;;;;;;5.95;100.00;102008.81;5157023;28;20050;-69
2021/03/25 03:59:52;;;;;;;105.18;37.83;;;;;;;5.99;100.00;102004.13;5156646;28;20054;-70
2021/03/25 04:02:36;;;;;;;100.32;36.40;;;;;;;5.99;100.00;101992.63;5157697;28;20034;-69
2021/03/25 04:05:21;;;;;;;90.72;38.30;;;;;;;5.95;100.00;101992.81;5157237;28;20479;-71
2021/03/25 04:08:01;;;;;;;98.72;38.67;;;;;;;5.93;100.00;101989.41;5157091;28;20030;-69
2021/03/25 04:10:39;;;;;;;95.47;38.28;;;;;;;5.92;100.00;101994.84;5157762;28;20109;-69
2021/03/25 04:13:14;;;;;;;103.20;37.00;;;;;;;5.90;100.00;101983.41;5156573;28;20049;-69
2021/03/25 04:15:49;;;;;;;97.63;37.17;;;;;;;5.88;100.00;101986.19;5152719;28;20027;-69
2021/03/25 04:18:29;;;;;;;89.82;34.67;;;;;;;5.84;100.00;101984.72;5157922;28;20109;-71
2021/03/25 04:21:09;;;;;;;92.63;34.10;;;;;;;5.79;100.00;101980.66;5150949;28;20101;-69
2021/03/25 04:23:42;;;;;;;105.80;36.92;;;;;;;5.74;100.00;101980.13;5154327;28;20095;-69
2021/03/25 04:26:12;;;;;;;108.10;40.25;;;;;;;5.68;100.00;101974.28;5157544;28;20054;-69
2021/03/25 04:28:49;;;;;;;98.10;38.53;;;;;;;5.65;100.00;101976.31;5153681;28;20061;-68
2021/03/25 04:31:20;;;;;;;96.15;38.70;;;;;;;5.61;100.00;101974.81;5136631;28;20026;-69
2021/03/25 04:33:50;;;;;;;95.10;37.70;;;;;;;5.55;100.00;101981.41;5152643;28;20087;-69
2021/03/25 04:36:24;;;;;;;108.70;38.40;;;;;;;5.48;100.00;101971.31;5152524;28;20088;-68
2021/03/25 04:38:56;;;;;;;92.63;37.22;;;;;;;5.37;100.00;101970.22;5151109;28;20023;-68
2021/03/25 04:41:29;;;;;;;104.25;37.72;;;;;;;5.33;100.00;101975.88;5150391;28;20023;-68
2021/03/25 04:44:03;;;;;;;98.45;38.83;;;;;;;5.27;100.00;101971.81;5156391;28;20076;-70
2021/03/25 04:46:49;;;;;;;106.07;39.90;;;;;;;5.26;100.00;101982.53;5152039;28;20109;-68
2021/03/25 04:49:30;;;;;;;113.95;39.22;;;;;;;5.29;100.00;101985.00;5153735;28;20035;-69
2021/03/25 04:52:03;;;;;;;109.05;39.63;;;;;;;5.30;100.00;101987.56;5150675;28;20382;-70
2021/03/25 04:54:37;;;;;;;103.82;39.20;;;;;;;5.29;100.00;101993.84;5153129;28;20407;-69
2021/03/25 04:57:19;;;;;;;104.45;38.30;;;;;;;5.28;100.00;101997.47;5153293;28;20478;-69
2021/03/25 04:59:51;;;;;;;104.35;38.60;;;;;;;5.22;100.00;102003.22;5142451;28;20114;-70
2021/03/25 05:02:23;;;;;;;107.13;37.28;;;;;;;5.15;100.00;102007.22;5155888;28;20042;-69
2021/03/25 05:04:56;;;;;;;103.75;36.78;;;;;;;5.08;100.00;102003.28;5149609;28;20088;-70
2021/03/25 05:07:30;;;;;;;105.55;35.88;;;;;;;4.99;100.00;101998.56;5157039;28;20111;-69
2021/03/25 05:10:01;;;;;;;108.03;38.42;;;;;;;4.89;100.00;102004.50;5148679;28;20022;-69
2021/03/25 05:12:31;;;;;;;115.55;41.47;;;;;;;4.80;100.00;102002.44;5149096;28;20030;-69
2021/03/25 05:15:08;;;;;;;113.22;39.58;;;;;;;4.75;100.00;102009.00;5156988;28;20034;-69
2021/03/25 05:17:59;;;;;;;112.05;41.30;;;;;;;4.66;100.00;102005.13;5149110;28;20447;-69
2021/03/25 05:20:41;;;;;;;120.93;41.72;;;;;;;4.59;100.00;102007.34;5155408;28;20498;-69
2021/03/25 05:23:32;;;;;;;119.55;39.83;;;;;;;4.53;100.00;102005.09;5155240;28;20034;-69
2021/03/25 05:26:09;;;;;;;120.03;41.80;;;;;;;4.48;100.00;101998.38;5150221;28;20027;-71
2021/03/25 05:28:47;;;;;;;131.10;46.13;;;;;;;4.40;100.00;101999.69;5146383;28;20075;-69
2021/03/25 05:31:18;;;;;;;121.10;43.10;;;;;;;4.28;100.00;102004.97;5144371;28;20481;-69
2021/03/25 05:33:52;;;;;;;120.68;43.75;;;;;;;4.20;100.00;102002.78;5147816;28;20030;-69
2021/03/25 05:36:24;;;;;;;114.22;41.88;;;;;;;4.15;100.00;102010.19;5152872;28;20445;-70
2021/03/25 05:38:55;;;;;;;113.53;41.28;;;;;;;4.12;100.00;102005.06;5149937;28;20375;-71
2021/03/25 05:41:36;;;;;;;124.90;41.30;;;;;;;4.17;100.00;102008.28;5156457;28;20068;-69
2021/03/25 05:44:23;;;;;;;124.22;44.33;;;;;;;4.27;100.00;102003.25;5156936;28;20379;-69
2021/03/25 05:47:10;;;;;;;116.13;42.88;;;;;;;4.37;100.00;102005.22;5146651;28;20065;-69
2021/03/25 05:49:59;;;;;;;122.55;41.35;;;;;;;4.49;100.00;102005.38;5142600;28;20045;-69
2021/03/25 05:52:49;;;;;;;132.23;43.92;;;;;;;4.65;100.00;102004.28;5143637;28;20042;-69
2021/03/25 05:55:42;;;;;;;124.90;42.13;;;;;;;4.84;100.00;102011.91;5156545;28;20490;-69
2021/03/25 05:58:31;;;;;;;126.28;42.55;;;;;;;4.98;100.00;102013.69;5147432;28;20503;-69
2021/03/25 06:01:28;;;;;;;130.70;40.80;;;;;;;5.14;100.00;102018.81;5144918;28;20160;-71
2021/03/25 06:04:06;;;;;;;109.30;38.45;;;;;;;5.29;100.00;102028.44;5143285;28;20483;-69
2021/03/25 06:06:44;;;;;;;113.65;37.92;;;;;;;5.43;100.00;102036.34;5152778;28;20031;-69
2021/03/25 06:09:28;;;;;;;102.75;36.10;;;;;;;5.51;100.00;102029.63;5152182;28;20037;-69
2021/03/25 06:12:05;;;;;;;112.18;38.45;;;;;;;5.59;100.00;102029.97;5142195;28;20042;-69
2021/03/25 06:14:51;;;;;;;113.18;38.67;;;;;;;5.69;100.00;102039.03;5160189;28;20022;-71
2021/03/25 06:17:35;;;;;;;103.70;36.63;;;;;;;5.78;100.00;102045.53;5159451;28;20050;-69
2021/03/25 06:20:27;;;;;;;100.97;34.53;;;;;;;5.87;100.00;102048.41;5146196;28;20018;-69
2021/03/25 06:23:23;;;;;;;91.70;34.60;;;;;;;5.95;100.00;102040.75;5159615;28;20053;-69
2021/03/25 06:25:59;;;;;;;91.50;32.20;;;;;;;6.07;100.00;102043.53;5159921;28;20468;-69
2021/03/25 06:28:34;;;;;;;88.43;33.42;;;;;;;6.15;100.00;102035.84;5158954;28;20398;-69
2021/03/25 06:31:22;;;;;;;87.30;31.65;;;;;;;6.23;100.00;102037.03;5158776;28;20491;-69
2021/03/25 06:33:56;;;;;;;98.40;31.70;;;;;;;6.34;100.00;102036.25;5159683;28;20083;-70
2021/03/25 06:36:47;;;;;;;83.43;30.58;;;;;;;6.41;100.00;102042.84;5159626;28;20030;-70
2021/03/25 06:39:28;;;;;;;74.25;29.90;;;;;;;6.48;100.00;102045.94;5159657;28;20079;-69
2021/03/25 06:42:07;;;;;;;80.60;29.92;;;;;;;6.55;100.00;102054.31;5159602;28;20018;-71
2021/03/25 06:44:44;;;;;;;88.38;30.98;;;;;;;6.60;100.00;102041.50;5159114;28;20501;-69
2021/03/25 06:47:29;;;;;;;79.28;30.17;;;;;;;6.67;100.00;102043.59;5180201;28;20022;-69
2021/03/25 06:50:04;;;;;;;79.90;29.30;;;;;;;6.76;100.00;102044.75;5153778;28;20037;-69
2021/03/25 06:52:36;;;;;;;81.80;30.83;;;;;;;6.84;100.00;102039.72;5159779;28;20294;-69
2021/03/25 06:55:23;;;;;;;75.30;29.23;;;;;;;6.89;100.00;102048.25;5159615;28;20033;-69
2021/03/25 06:57:57;;;;;;;73.07;27.63;;;;;;;6.95;100.00;102047.78;5145292;28;20035;-69
2021/03/25 07:00:30;;;;;;;76.07;28.20;;;;;;;7.07;100.00;102053.16;5144723;28;20114;-69
2021/03/25 07:03:05;;;;;;;89.95;29.48;;;;;;;7.14;100.00;102059.78;5146988;28;20062;-69
2021/03/25 07:05:38;;;;;;;72.43;28.85;;;;;;;7.20;100.00;102060.16;5155461;28;20057;-69
2021/03/25 07:08:14;;;;;;;74.35;28.20;;;;;;;7.31;100.00;102058.50;5149724;28;20034;-69
2021/03/25 07:10:51;;;;;;;68.13;27.20;;;;;;;7.39;100.00;102056.94;5143896;28;20037;-70
2021/03/25 07:13:46;;;;;;;65.30;27.23;;;;;;;7.50;100.00;102064.16;5150395;28;20022;-69
2021/03/25 07:16:17;;;;;;;77.53;29.02;;;;;;;7.57;100.00;102059.19;5154866;28;20387;-71
2021/03/25 07:18:57;;;;;;;75.30;27.90;;;;;;;7.64;100.00;102055.09;5152553;28;20034;-69
2021/03/25 07:21:31;;;;;;;71.28;25.67;;;;;;;7.73;100.00;102059.69;5152619;28;20118;-69
2021/03/25 07:24:12;;;;;;;62.78;26.85;;;;;;;7.81;100.00;102054.63;5154505;28;20407;-69
2021/03/25 07:26:45;;;;;;;62.08;25.20;;;;;;;7.96;100.00;102064.13;5156400;28;20030;-69
2021/03/25 07:29:22;;;;;;;60.90;24.88;;;;;;;8.14;100.00;102061.84;5154333;28;20031;-69
2021/03/25 07:32:00;;;;;;;63.75;25.10;;;;;;;8.31;100.00;102072.03;5154834;28;20031;-69
2021/03/25 07:34:37;;;;;;;65.20;24.13;;;;;;;8.45;100.00;102075.47;5155930;28;20105;-69
2021/03/25 07:37:10;;;;;;;59.72;23.42;;;;;;;8.52;100.00;102074.00;5153120;28;20361;-70
2021/03/25 07:39:48;;;;;;;59.53;23.88;;;;;;;8.68;100.00;102076.28;5157168;28;20026;-69
2021/03/25 07:42:31;;;;;;;59.33;21.42;;;;;;;8.68;100.00;102073.63;5153843;28;20026;-70
2021/03/25 07:45:21;;;;;;;68.63;23.38;;;;;;;8.85;100.00;102070.44;5154291;28;20606;-69
2021/03/25 07:47:53;;;;;;;62.78;22.55;;;;;;;9.04;100.00;102075.13;5160209;28;20042;-70
2021/03/25 07:50:26;;;;;;;60.67;22.75;;;;;;;9.03;100.00;102082.28;5141727;28;20030;-69
2021/03/25 07:52:57;;;;;;;55.47;22.95;;;;;;;9.12;100.00;102080.69;5145452;28;20031;-69
2021/03/25 07:55:31;;;;;;;60.92;22.63;;;;;;;9.22;100.00;102084.31;5158637;28;20117;-72
2021/03/25 07:58:01;;;;;;;57.25;23.85;;;;;;;9.31;100.00;102093.41;5145320;28;20026;-69
2021/03/25 08:00:34;;;;;;;62.03;22.73;;;;;;;9.36;100.00;102091.19;5141115;28;20115;-70
2021/03/25 08:03:21;;;;;;;56.67;22.35;;;;;;;9.25;100.00;102099.28;5145662;28;20486;-69
2021/03/25 08:05:51;;;;;;;52.60;21.50;;;;;;;9.14;100.00;102091.28;5148285;28;20037;-69
2021/03/25 08:08:36;;;;;;;52.97;21.25;;;;;;;9.07;100.00;102093.59;5143404;28;20022;-70
2021/03/25 08:11:15;;;;;;;49.57;21.20;;;;;;;9.08;100.00;102096.16;5144659;28;20471;-70
2021/03/25 08:13:49;;;;;;;49.22;20.77;;;;;;;9.18;100.00;102090.03;5142904;28;20321;-71
2021/03/25 08:16:21;;;;;;;53.65;22.55;;;;;;;9.38;100.00;102091.91;5151982;28;20019;-71
2021/03/25 08:19:22;;;;;;;57.25;21.48;;;;;;;9.54;100.00;102094.19;5145466;28;20379;-70
2021/03/25 08:22:08;;;;;;;47.97;20.98;;;;;;;9.60;100.00;102097.19;5147984;28;20117;-72
2021/03/25 08:25:01;;;;;;;47.00;19.15;;;;;;;9.65;100.00;102103.97;5146410;28;20054;-70
2021/03/25 08:27:50;;;;;;;46.25;18.42;;;;;;;9.60;100.00;102110.56;5143766;28;20510;-70
2021/03/25 08:30:39;;;;;;;49.25;18.80;;;;;;;9.51;100.00;102103.31;5147323;28;20049;-69
2021/03/25 08:33:17;;;;;;;45.88;18.45;;;;;;;9.46;100.00;102107.34;5155333;28;20038;-69
2021/03/25 08:35:57;;;;;;;60.88;24.70;;;;;;;9.37;100.00;102103.59;5148463;28;20022;-70
2021/03/25 08:38:51;;;;;;;53.03;19.83;;;;;;;9.35;100.00;102105.56;5148789;28;20410;-70
2021/03/25 08:41:28;;;;;;;48.50;17.17;;;;;;;9.39;100.00;102106.16;5144762;28;20411;-70
2021/03/25 08:43:59;;;;;;;42.65;18.35;;;;;;;9.42;100.00;102103.22;5147440;28;20069;-69
2021/03/25 08:46:40;;;;;;;48.03;19.75;;;;;;;9.47;100.00;102104.53;5147340;28;20034;-70
2021/03/25 08:49:18;;;;;;;45.97;18.05;;;;;;;9.59;100.00;102113.41;5206503;28;20364;-69
2021/03/25 08:51:50;;;;;;;45.78;17.85;;;;;;;9.72;100.00;102113.19;5153374;28;20117;-71
2021/03/25 08:54:40;;;;;;;40.80;17.38;;;;;;;9.87;100.00;102109.22;5154339;28;20031;-71
2021/03/25 08:57:20;;;;;;;43.05;18.90;;;;;;;9.89;100.00;102109.94;5153281;28;20089;-70
2021/03/25 08:59:52;;;;;;;39.80;16.48;;;;;;;9.90;100.00;102108.97;5155807;28;20038;-71
2021/03/25 09:02:31;;;;;;;44.50;18.15;;;;;;;10.12;100.00;102110.63;5155181;28;20398;-70
2021/03/25 09:05:16;;;;;;;40.50;17.58;;;;;;;10.27;100.00;102109.34;5154628;28;20038;-70
2021/03/25 09:07:48;;;;;;;39.75;16.83;;;;;;;10.43;100.00;102108.84;5155294;28;20029;-70
2021/03/25 09:10:49;;;;;;;39.45;16.95;;;;;;;10.54;100.00;102107.88;5153255;28;20030;-71
2021/03/25 09:13:29;;;;;;;37.38;16.70;;;;;;;10.54;100.00;102106.09;5153193;28;20055;-70
2021/03/25 09:16:09;;;;;;;37.70;16.65;;;;;;;10.72;100.00;102105.44;5155775;28;20026;-70
2021/03/25 09:18:44;;;;;;;32.33;15.13;;;;;;;10.72;100.00;102106.28;5156066;28;20054;-70
2021/03/25 09:21:20;;;;;;;30.73;14.67;;;;;;;10.71;100.00;102107.25;5151959;28;20033;-71
2021/03/25 09:23:50;;;;;;;25.90;12.55;;;;;;;10.74;100.00;102108.81;5154618;28;20392;-70
2021/03/25 09:26:21;;;;;;;28.58;12.85;;;;;;;10.63;100.00;102110.63;5145112;28;20034;-70
2021/03/25 09:28:58;;;;;;;27.88;13.48;;;;;;;10.67;100.00;102105.84;5149506;28;20058;-70
2021/03/25 09:31:32;;;;;;;27.45;13.43;;;;;;;10.78;100.00;102102.19;5148912;28;20033;-70
2021/03/25 09:34:09;;;;;;;25.75;12.68;;;;;;;10.77;100.00;102106.72;5142804;28;20038;-70
2021/03/25 09:36:43;;;;;;;30.38;13.90;;;;;;;10.91;100.00;102107.31;5150849;28;20028;-71
2021/03/25 09:39:19;;;;;;;25.05;11.27;;;;;;;11.26;100.00;102115.72;5148036;28;20114;-71
2021/03/25 09:41:51;;;;;;;24.63;13.63;;;;;;;11.53;100.00;102112.31;5149506;28;20478;-70
2021/03/25 09:44:34;;;;;;;22.73;10.95;;;;;;;11.49;100.00;102108.22;5156783;28;20398;-72
2021/03/25 09:47:05;;;;;;;21.65;11.15;;;;;;;11.43;100.00;102116.00;5146807;28;20037;-70
2021/03/25 09:49:45;;;;;;;29.90;13.18;;;;;;;11.37;100.00;102112.03;5224251;28;20028;-70
2021/03/25 09:52:29;;;;;;;26.95;12.15;;;;;;;11.02;100.00;102118.78;5148440;28;20495;-71
2021/03/25 09:55:00;;;;;;;22.00;12.07;;;;;;;10.91;100.00;102120.75;5159869;28;20579;-70
2021/03/25 09:57:31;;;;;;;26.50;12.23;;;;;;;10.71;100.00;102123.38;5159538;28;20022;-71
2021/03/25 10:00:08;;;;;;;29.77;14.05;;;;;;;10.57;100.00;102131.78;5158838;28;20031;-70
2021/03/25 10:02:40;;;;;;;27.60;13.65;;;;;;;10.44;100.00;102129.34;5158542;28;20031;-69
2021/03/25 10:05:24;;;;;;;30.38;13.27;;;;;;;10.34;100.00;102125.72;5159448;28;20031;-71
2021/03/25 10:07:57;;;;;;;31.10;14.02;;;;;;;10.20;100.00;102123.38;5158119;28;20103;-70
2021/03/25 10:10:46;;;;;;;28.05;13.05;;;;;;;10.26;100.00;102120.19;5159544;28;20071;-70
2021/03/25 10:13:40;;;;;;;30.10;13.68;;;;;;;10.47;100.00;102125.53;5147002;28;20026;-73
2021/03/25 10:16:36;;;;;;;24.40;12.93;;;;;;;10.47;100.00;102115.63;5159503;28;20364;-72
2021/03/25 10:19:07;;;;;;;;;;;;;;;10.78;100.00;102112.91;5159179;28;20130;-72
2021/03/25 10:21:44;;;;;;;32.22;13.88;;;;;;;10.96;100.00;102116.66;5159769;28;19941;-70
2021/03/25 10:24:20;;;;;;;31.23;12.57;;;;;;;11.25;100.00;102114.03;5156491;28;20042;-70
2021/03/25 10:27:02;;;;;;;23.42;11.82;;;;;;;11.27;100.00;102116.56;5142634;28;20023;-70
2021/03/25 10:29:36;;;;;;;25.83;12.27;;;;;;;11.17;100.00;102115.69;5141712;28;20062;-71
2021/03/25 10:32:18;;;;;;;26.05;12.65;;;;;;;11.15;100.00;102121.22;5142037;28;20039;-70
2021/03/25 10:34:55;;;;;;;27.23;12.55;;;;;;;11.03;100.00;102123.16;5149254;28;20425;-70
2021/03/25 10:37:34;;;;;;;32.85;15.82;;;;;;;11.11;100.00;102120.66;5144933;28;20394;-69
2021/03/25 10:40:22;;;;;;;23.55;12.60;;;;;;;11.00;100.00;102126.13;5144094;28;20062;-70
2021/03/25 10:42:57;;;;;;;29.55;17.65;;;;;;;10.99;100.00;102123.56;5142632;28;20027;-71
2021/03/25 10:45:36;;;;;;;30.83;14.43;;;;;;;11.13;100.00;102117.81;5155425;28;20122;-72
2021/03/25 10:48:22;;;;;;;26.98;13.38;;;;;;;10.99;100.00;102111.00;5143135;28;20056;-71
2021/03/25 10:51:18;;;;;;;29.08;13.40;;;;;;;10.98;100.00;102129.94;5140738;28;20019;-71
2021/03/25 10:53:49;;;;;;;35.65;14.40;;;;;;;11.04;100.00;102129.38;5141211;28;20486;-71
2021/03/25 10:56:29;;;;;;;33.58;13.98;;;;;;;11.07;100.00;102121.91;5142584;28;20144;-71
2021/03/25 10:59:07;;;;;;;31.77;14.80;;;;;;;10.81;100.00;102124.25;5141071;28;20480;-71
2021/03/25 11:01:48;;;;;;;29.02;15.15;;;;;;;10.77;100.00;102113.91;5141526;28;20518;-72
2021/03/25 11:04:24;;;;;;;35.72;15.27;;;;;;;10.75;100.00;102122.13;5140896;28;20035;-71
2021/03/25 11:06:54;;;;;;;;;;;;;;;10.87;100.00;102107.59;5142397;28;20066;-71
2021/03/25 11:09:27;;;;;;;30.05;13.80;;;;;;;11.01;100.00;102102.81;5153507;28;19959;-71
2021/03/25 11:12:02;;;;;;;28.90;13.30;;;;;;;11.21;100.00;102098.31;5139878;28;20034;-72
2021/03/25 11:14:36;;;;;;;26.90;13.80;;;;;;;11.27;100.00;102092.38;5141086;28;20041;-71
2021/03/25 11:17:27;;;;;;;25.55;12.48;;;;;;;11.67;100.00;102095.78;5148012;28;20018;-71
2021/03/25 11:20:01;;;;;;;129.82;51.20;;;;;;;12.00;100.00;102095.44;5140062;28;20031;-72
2021/03/25 11:22:34;;;;;;;27.33;14.63;;;;;;;12.03;100.00;102098.72;5141341;28;20018;-71
2021/03/25 11:25:10;;;;;;;24.23;13.15;;;;;;;12.24;100.00;102093.13;5151970;28;20029;-71
2021/03/25 11:27:41;;;;;;;26.58;12.68;;;;;;;12.79;100.00;102090.47;5145886;28;20023;-71
2021/03/25 11:30:35;;;;;;;23.25;12.23;;;;;;;13.12;100.00;102089.00;5142340;28;20391;-71
2021/03/25 11:33:27;;;;;;;21.05;10.43;;;;;;;13.34;100.00;102097.66;5147422;28;20346;-71
2021/03/25 11:36:00;;;;;;;20.08;10.15;;;;;;;13.11;100.00;102091.84;5145925;28;20091;-71
2021/03/25 11:38:35;;;;;;;20.30;10.50;;;;;;;12.86;100.00;102096.97;5142806;28;20027;-72
2021/03/25 11:41:08;;;;;;;;;;;;;;;12.90;100.00;102101.06;5143453;28;20030;-71
2021/03/25 11:43:53;;;;;;;24.30;12.02;;;;;;;12.76;100.00;102095.31;5144907;28;19914;-72
2021/03/25 11:46:36;;;;;;;25.40;12.93;;;;;;;12.45;100.00;102087.53;5141878;28;20041;-71
2021/03/25 11:49:19;;;;;;;30.92;14.45;;;;;;;12.37;100.00;102093.66;5144625;28;20019;-72
2021/03/25 11:52:00;;;;;;;29.92;15.00;;;;;;;12.28;100.00;102094.53;5139491;28;20474;-71
2021/03/25 11:54:34;;;;;;;24.40;13.18;;;;;;;12.28;100.00;102088.31;5139319;28;20065;-71
2021/03/25 11:57:07;;;;;;;26.10;12.97;;;;;;;12.43;100.00;102081.44;5139391;28;20130;-71